createdAt,value
2023-03-11T00:01:20.042Z,95.34
2023-03-11T00:03:47.509Z,95.70
2023-03-11T00:06:14.948Z,95.41
2023-03-11T00:08:42.746Z,94.73
2023-03-11T00:11:10.269Z,95.21
2023-03-11T00:13:40.797Z,94.97
2023-03-11T00:16:08.371Z,94.99
2023-03-11T00:18:35.877Z,94.95
2023-03-11T00:21:03.382Z,94.42
2023-03-11T00:23:32.075Z,93.83
2023-03-11T00:26:02.926Z,94.12
2023-03-11T00:28:32.228Z,93.18
2023-03-11T00:31:03.562Z,93.03
2023-03-11T00:33:31.313Z,92.51
2023-03-11T00:35:58.827Z,93.29
2023-03-11T00:38:26.333Z,93.61
2023-03-11T00:40:53.766Z,92.79
2023-03-11T00:43:21.352Z,92.78
2023-03-11T00:45:48.894Z,92.04
2023-03-11T00:48:17.846Z,93.27
2023-03-11T00:50:45.307Z,91.86
2023-03-11T00:53:13.118Z,91.06
2023-03-11T00:55:40.718Z,91.28
2023-03-11T00:58:08.799Z,91.80
2023-03-11T01:00:36.325Z,91.05
2023-03-11T01:03:04.186Z,90.21
2023-03-11T01:05:34.762Z,90.35
2023-03-11T01:08:03.129Z,89.81
2023-03-11T01:10:32.015Z,90.18
2023-03-11T01:12:59.651Z,89.60
2023-03-11T01:15:29.099Z,89.41
2023-03-11T01:17:56.739Z,89.47
2023-03-11T01:20:24.807Z,89.49
2023-03-11T01:22:53.882Z,89.88
2023-03-11T01:25:23.584Z,89.59
2023-03-11T01:27:51.281Z,90.13
2023-03-11T01:30:21.124Z,89.56
2023-03-11T01:32:48.693Z,89.64
2023-03-11T01:35:18.271Z,88.92
2023-03-11T01:37:46.109Z,88.25
2023-03-11T01:40:20.034Z,88.61
2023-03-11T01:42:47.587Z,88.59
2023-03-11T01:45:34.899Z,89.38
2023-03-11T01:48:03.381Z,89.45
2023-03-11T01:50:36.752Z,88.45
2023-03-11T01:53:06.478Z,89.14
2023-03-11T01:55:35.611Z,89.35
2023-03-11T01:58:06.967Z,89.67
2023-03-11T02:00:35.530Z,89.87
2023-03-11T02:03:10.960Z,90.17
2023-03-11T02:05:39.326Z,89.84
2023-03-11T02:08:07.930Z,89.51
2023-03-11T02:10:39.553Z,90.48
2023-03-11T02:13:07.166Z,89.00
2023-03-11T02:15:34.700Z,89.73
2023-03-11T02:18:04.316Z,90.68
2023-03-11T02:20:41.419Z,91.01
2023-03-11T02:23:09.457Z,91.44
2023-03-11T02:25:42.908Z,91.60
2023-03-11T02:28:14.233Z,91.82
2023-03-11T02:30:44.338Z,91.87
2023-03-11T02:33:14.042Z,92.10
2023-03-11T02:35:41.776Z,92.59
2023-03-11T02:38:09.311Z,93.04
2023-03-11T02:40:42.722Z,93.11
2023-03-11T02:43:16.674Z,93.06
2023-03-11T02:45:46.389Z,93.20
2023-03-11T02:48:15.358Z,93.46
2023-03-11T02:50:42.830Z,93.86
2023-03-11T02:53:10.346Z,94.14
2023-03-11T02:55:37.813Z,93.85
2023-03-11T02:58:05.350Z,94.28
2023-03-11T03:00:34.508Z,94.95
2023-03-11T03:03:02.035Z,95.29
2023-03-11T03:05:30.090Z,95.61
2023-03-11T03:07:57.769Z,96.43
2023-03-11T03:10:25.593Z,96.57
2023-03-11T03:12:53.147Z,96.58
2023-03-11T03:15:20.753Z,96.94
2023-03-11T03:17:51.396Z,96.84
2023-03-11T03:20:19.427Z,96.89
2023-03-11T03:22:46.863Z,97.01
2023-03-11T03:25:14.372Z,97.00
2023-03-11T03:27:41.802Z,97.26
2023-03-11T03:30:11.105Z,97.11
2023-03-11T03:32:38.639Z,97.45
2023-03-11T03:35:09.477Z,97.25
2023-03-11T03:37:38.452Z,97.08
2023-03-11T03:40:08.225Z,97.27
2023-03-11T03:42:36.249Z,97.54
2023-03-11T03:45:04.740Z,97.41
2023-03-11T03:47:33.278Z,97.64
2023-03-11T03:50:00.736Z,97.92
2023-03-11T03:52:29.516Z,98.44
2023-03-11T03:54:56.925Z,98.36
2023-03-11T03:57:24.374Z,98.08
2023-03-11T03:59:51.868Z,98.39
2023-03-11T04:02:19.365Z,98.43
2023-03-11T04:04:47.508Z,98.53
2023-03-11T04:07:14.943Z,98.12
2023-03-11T04:09:44.958Z,98.13
2023-03-11T04:12:14.575Z,98.17
2023-03-11T04:14:42.068Z,98.34
2023-03-11T04:17:11.619Z,98.22
2023-03-11T04:19:39.339Z,98.48
2023-03-11T04:22:07.179Z,98.47
2023-03-11T04:24:34.629Z,98.74
2023-03-11T04:27:03.403Z,98.22
2023-03-11T04:29:30.841Z,98.28
2023-03-11T04:31:58.350Z,97.97
2023-03-11T04:34:25.930Z,98.14
2023-03-11T04:36:54.391Z,97.75
2023-03-11T04:39:21.896Z,97.67
2023-03-11T04:41:49.359Z,97.57
2023-03-11T04:44:18.309Z,97.43
2023-03-11T04:46:45.772Z,97.66
2023-03-11T04:49:13.235Z,97.67
2023-03-11T04:51:40.709Z,98.07
2023-03-11T04:54:08.174Z,97.73
2023-03-11T04:56:35.677Z,98.00
2023-03-11T04:59:03.196Z,98.42
2023-03-11T05:01:32.089Z,98.63
2023-03-11T05:03:59.545Z,98.83
2023-03-11T05:06:27.115Z,98.76
2023-03-11T05:08:54.623Z,98.80
2023-03-11T05:11:22.085Z,98.87
2023-03-11T05:13:49.519Z,98.48
2023-03-11T05:16:17.017Z,99.00
2023-03-11T05:18:45.854Z,99.22
2023-03-11T05:21:13.352Z,99.45
2023-03-11T05:23:40.945Z,99.46
2023-03-11T05:26:08.378Z,99.60
2023-03-11T05:28:35.824Z,99.78
2023-03-11T05:31:03.329Z,100.00
2023-03-11T05:33:35.114Z,99.95
2023-03-11T05:36:09.207Z,100.00
2023-03-11T05:38:37.450Z,99.82
2023-03-11T05:41:06.126Z,99.69
2023-03-11T05:43:33.567Z,100.00
2023-03-11T05:46:01.007Z,100.00
2023-03-11T05:48:28.463Z,100.00
2023-03-11T05:50:55.917Z,100.00
2023-03-11T05:53:25.201Z,100.00
2023-03-11T05:56:01.987Z,100.00
2023-03-11T05:58:29.890Z,100.00
2023-03-11T06:00:59.098Z,100.00
2023-03-11T06:03:26.916Z,100.00
2023-03-11T06:05:54.555Z,100.00
2023-03-11T06:08:22.435Z,100.00
2023-03-11T06:10:51.296Z,100.00
2023-03-11T06:13:18.760Z,100.00
2023-03-11T06:15:46.561Z,100.00
2023-03-11T06:18:14.015Z,100.00
2023-03-11T06:20:41.798Z,100.00
2023-03-11T06:23:09.251Z,100.00
2023-03-11T06:25:36.735Z,100.00
2023-03-11T06:28:05.889Z,100.00
2023-03-11T06:30:33.512Z,100.00
2023-03-11T06:33:01.040Z,99.92
2023-03-11T06:35:28.854Z,99.99
2023-03-11T06:37:56.298Z,99.81
2023-03-11T06:40:23.829Z,99.32
2023-03-11T06:42:51.319Z,99.19
2023-03-11T06:45:20.821Z,98.53
2023-03-11T06:47:48.346Z,97.96
2023-03-11T06:50:16.165Z,97.99
2023-03-11T06:52:43.604Z,97.42
2023-03-11T06:55:11.288Z,96.51
2023-03-11T06:57:38.766Z,96.02
2023-03-11T07:00:10.298Z,95.34
2023-03-11T07:02:39.060Z,95.33
2023-03-11T07:05:07.373Z,94.70
2023-03-11T07:07:34.863Z,94.27
2023-03-11T07:10:02.328Z,94.69
2023-03-11T07:12:29.984Z,94.46
2023-03-11T07:14:57.526Z,94.26
2023-03-11T07:17:26.030Z,93.88
2023-03-11T07:19:55.015Z,93.85
2023-03-11T07:22:22.461Z,92.79
2023-03-11T07:24:50.329Z,91.91
2023-03-11T07:27:17.874Z,91.91
2023-03-11T07:29:45.604Z,91.35
2023-03-11T07:32:13.334Z,90.48
2023-03-11T07:34:40.828Z,90.19
2023-03-11T07:37:09.860Z,89.47
2023-03-11T07:39:37.440Z,89.39
2023-03-11T07:42:05.483Z,89.54
2023-03-11T07:44:33.072Z,88.72
2023-03-11T07:47:03.408Z,87.49
2023-03-11T07:49:31.004Z,86.85
2023-03-11T07:51:58.514Z,87.66
2023-03-11T07:54:27.340Z,86.66
2023-03-11T07:56:54.797Z,87.59
2023-03-11T07:59:22.265Z,87.44
2023-03-11T08:01:50.508Z,85.63
2023-03-11T08:04:17.994Z,85.00
2023-03-11T08:06:47.637Z,84.37
2023-03-11T08:09:15.263Z,83.07
2023-03-11T08:11:44.040Z,82.22
2023-03-11T08:14:11.541Z,82.14
2023-03-11T08:16:41.329Z,81.00
2023-03-11T08:19:11.334Z,80.48
2023-03-11T08:21:38.865Z,81.58
2023-03-11T08:24:07.359Z,80.74
2023-03-11T08:26:35.061Z,82.84
2023-03-11T08:29:04.101Z,79.79
2023-03-11T08:31:34.894Z,79.08
2023-03-11T08:34:03.840Z,77.69
2023-03-11T08:36:32.130Z,79.01
2023-03-11T08:38:59.983Z,77.72
2023-03-11T08:41:28.385Z,76.57
2023-03-11T08:43:55.811Z,74.86
2023-03-11T08:46:27.080Z,76.67
2023-03-11T08:48:55.146Z,75.82
2023-03-11T08:51:24.062Z,77.46
2023-03-11T08:53:51.557Z,77.52
2023-03-11T08:56:19.367Z,75.89
2023-03-11T08:58:47.575Z,77.25
2023-03-11T09:01:15.286Z,76.91
2023-03-11T09:03:44.205Z,78.07
2023-03-11T09:06:15.425Z,77.76
2023-03-11T09:08:43.091Z,77.10
2023-03-11T09:11:13.291Z,74.02
2023-03-11T09:13:41.842Z,74.64
2023-03-11T09:16:10.505Z,72.41
2023-03-11T09:18:37.978Z,72.34
2023-03-11T09:21:06.938Z,73.70
2023-03-11T09:23:34.408Z,73.78
2023-03-11T09:26:01.899Z,73.59
2023-03-11T09:28:29.362Z,74.10
2023-03-11T09:30:57.407Z,73.33
2023-03-11T09:33:25.578Z,71.41
2023-03-11T09:35:53.053Z,72.87
2023-03-11T09:38:21.861Z,72.52
2023-03-11T09:41:03.061Z,70.49
2023-03-11T09:43:44.554Z,69.06
2023-03-11T09:46:40.647Z,68.37
2023-03-11T09:49:20.298Z,70.76
2023-03-11T09:51:54.567Z,68.38
2023-03-11T09:54:23.914Z,66.54
2023-03-11T09:56:52.087Z,69.44
2023-03-11T09:59:27.546Z,66.40
2023-03-11T10:01:55.024Z,66.00
2023-03-11T10:04:27.628Z,66.35
2023-03-11T10:06:56.887Z,65.58
2023-03-11T10:09:39.177Z,64.57
2023-03-11T10:12:26.037Z,64.65
2023-03-11T10:15:05.964Z,63.86
2023-03-11T10:18:11.577Z,66.45
2023-03-11T10:20:50.886Z,65.51
2023-03-11T10:23:25.445Z,64.24
2023-03-11T10:26:02.139Z,66.04
2023-03-11T10:28:34.606Z,65.34
2023-03-11T10:31:08.031Z,63.15
2023-03-11T10:33:40.734Z,62.44
2023-03-11T10:36:14.294Z,63.49
2023-03-11T10:38:46.535Z,63.77
2023-03-11T10:41:20.994Z,62.67
2023-03-11T10:43:55.666Z,64.74
2023-03-11T10:46:25.810Z,63.90
2023-03-11T10:48:53.230Z,62.10
2023-03-11T10:51:23.489Z,62.89
2023-03-11T10:53:52.839Z,59.33
2023-03-11T10:56:29.560Z,60.06
2023-03-11T10:58:57.471Z,62.77
2023-03-11T11:01:26.297Z,62.87
2023-03-11T11:03:56.284Z,64.64
2023-03-11T11:06:28.744Z,61.45
2023-03-11T11:09:07.917Z,62.13
2023-03-11T11:11:38.708Z,61.65
2023-03-11T11:14:07.330Z,60.16
2023-03-11T11:16:35.958Z,60.43
2023-03-11T11:19:08.644Z,63.51
2023-03-11T11:21:39.225Z,59.69
2023-03-11T11:24:19.607Z,57.72
2023-03-11T11:27:06.977Z,61.12
2023-03-11T11:29:34.706Z,63.00
2023-03-11T11:32:19.011Z,61.33
2023-03-11T11:34:55.902Z,58.61
2023-03-11T11:37:26.778Z,67.82
2023-03-11T11:39:59.286Z,59.70
2023-03-11T11:42:31.358Z,59.06
2023-03-11T11:45:04.317Z,59.98
2023-03-11T11:47:35.994Z,57.49
2023-03-11T11:50:07.580Z,58.92
2023-03-11T11:52:40.591Z,55.59
2023-03-11T11:55:17.858Z,56.24
2023-03-11T11:57:46.759Z,55.88
2023-03-11T12:00:21.888Z,57.25
2023-03-11T12:03:19.156Z,54.59
2023-03-11T12:05:56.787Z,59.55
2023-03-11T12:08:34.363Z,56.63
2023-03-11T12:11:05.071Z,59.90
2023-03-11T12:13:55.587Z,58.17
2023-03-11T12:16:32.603Z,56.04
2023-03-11T12:19:05.792Z,57.60
2023-03-11T12:21:54.723Z,55.87
2023-03-11T12:24:38.062Z,56.85
2023-03-11T12:27:13.800Z,61.02
2023-03-11T12:29:45.966Z,56.23
2023-03-11T12:32:34.558Z,58.80
2023-03-11T12:35:05.369Z,57.15
2023-03-11T12:37:33.368Z,56.40
2023-03-11T12:40:00.799Z,56.21
2023-03-11T12:42:41.185Z,58.81
2023-03-11T12:45:44.403Z,58.57
2023-03-11T12:48:34.217Z,56.73
2023-03-11T12:51:01.952Z,57.36
2023-03-11T12:53:47.171Z,57.87
2023-03-11T12:56:32.162Z,56.62
2023-03-11T12:59:36.265Z,57.54
2023-03-11T13:02:20.497Z,55.69
2023-03-11T13:04:57.365Z,54.00
2023-03-11T13:07:47.194Z,55.76
2023-03-11T13:10:20.211Z,56.47
2023-03-11T13:12:49.050Z,57.46
2023-03-11T13:15:30.757Z,58.03
2023-03-11T13:18:03.359Z,57.52
2023-03-11T13:20:59.630Z,56.75
2023-03-11T13:23:34.333Z,54.84
2023-03-11T13:26:41.082Z,55.62
2023-03-11T13:29:28.955Z,54.81
2023-03-11T13:32:07.382Z,54.93
2023-03-11T13:34:45.995Z,52.62
2023-03-11T13:37:34.737Z,52.69
2023-03-11T13:40:14.000Z,54.73
2023-03-11T13:42:46.281Z,54.46
2023-03-11T13:45:22.940Z,55.30
2023-03-11T13:47:51.975Z,54.60
2023-03-11T13:50:27.079Z,55.28
2023-03-11T13:52:57.869Z,55.67
2023-03-11T13:55:32.303Z,55.36
2023-03-11T13:57:59.747Z,57.13
2023-03-11T14:00:29.377Z,54.21
2023-03-11T14:02:58.629Z,54.95
2023-03-11T14:05:28.080Z,55.44
2023-03-11T14:08:12.882Z,54.27
2023-03-11T14:10:40.757Z,53.70
2023-03-11T14:13:17.169Z,55.75
2023-03-11T14:15:49.939Z,53.62
2023-03-11T14:18:30.544Z,54.08
2023-03-11T14:20:59.091Z,54.60
2023-03-11T14:23:33.550Z,52.23
2023-03-11T14:26:04.492Z,50.68
2023-03-11T14:28:35.691Z,48.23
2023-03-11T14:31:04.133Z,46.83
2023-03-11T14:33:32.014Z,46.45
2023-03-11T14:36:01.005Z,45.90
2023-03-11T14:38:31.704Z,47.71
2023-03-11T14:41:00.503Z,46.78
2023-03-11T14:43:30.446Z,44.65
2023-03-11T14:45:58.491Z,43.00
2023-03-11T14:48:30.417Z,42.89
2023-03-11T14:51:01.121Z,43.72
2023-03-11T14:53:33.894Z,48.01
2023-03-11T14:56:06.631Z,47.17
2023-03-11T14:58:35.718Z,46.24
2023-03-11T15:01:06.839Z,49.54
2023-03-11T15:03:36.896Z,49.45
2023-03-11T15:06:07.922Z,50.36
2023-03-11T15:08:43.948Z,50.03
2023-03-11T15:11:24.316Z,48.91
2023-03-11T15:13:53.486Z,51.65
2023-03-11T15:16:29.936Z,50.68
2023-03-11T15:18:57.659Z,46.00
2023-03-11T15:21:25.668Z,45.49
2023-03-11T15:24:01.047Z,43.74
2023-03-11T15:26:30.970Z,42.64
2023-03-11T15:29:00.938Z,47.01
2023-03-11T15:31:32.064Z,44.45
2023-03-11T15:34:25.004Z,44.79
2023-03-11T15:36:58.285Z,44.40
2023-03-11T15:39:41.171Z,43.13
2023-03-11T15:42:15.349Z,43.02
2023-03-11T15:44:49.521Z,40.41
2023-03-11T15:47:19.697Z,44.70
2023-03-11T15:49:48.091Z,45.24
2023-03-11T15:52:16.214Z,44.10
2023-03-11T15:54:54.659Z,43.13
2023-03-11T15:57:25.686Z,43.82
2023-03-11T15:59:54.821Z,44.15
2023-03-11T16:02:24.583Z,45.18
2023-03-11T16:04:52.355Z,45.08
2023-03-11T16:07:32.816Z,47.71
2023-03-11T16:10:08.419Z,48.02
2023-03-11T16:12:35.947Z,48.26
2023-03-11T16:15:04.060Z,49.01
2023-03-11T16:17:46.864Z,50.54
2023-03-11T16:20:17.207Z,51.50
2023-03-11T16:22:44.812Z,52.79
2023-03-11T16:25:21.432Z,53.97
2023-03-11T16:27:50.406Z,53.74
2023-03-11T16:30:18.870Z,52.29
2023-03-11T16:32:46.525Z,48.96
2023-03-11T16:35:14.040Z,47.52
2023-03-11T16:37:42.653Z,46.50
2023-03-11T16:40:15.812Z,46.77
2023-03-11T16:42:43.794Z,46.59
2023-03-11T16:45:12.305Z,46.19
2023-03-11T16:47:39.731Z,46.52
2023-03-11T16:50:08.758Z,46.65
2023-03-11T16:52:36.304Z,48.64
2023-03-11T16:55:03.916Z,50.89
2023-03-11T16:57:32.664Z,51.63
2023-03-11T17:00:00.182Z,53.23
2023-03-11T17:02:27.742Z,54.28
2023-03-11T17:04:55.243Z,54.49
2023-03-11T17:07:24.064Z,55.23
2023-03-11T17:09:51.822Z,55.32
2023-03-11T17:12:19.455Z,56.30
2023-03-11T17:14:48.203Z,56.73
2023-03-11T17:17:15.619Z,57.28
2023-03-11T17:19:43.033Z,57.39
2023-03-11T17:22:10.490Z,57.69
2023-03-11T17:24:38.354Z,57.87
2023-03-11T17:27:06.388Z,57.50
2023-03-11T17:29:34.619Z,58.92
2023-03-11T17:32:05.916Z,59.66
2023-03-11T17:34:33.495Z,59.91
2023-03-11T17:37:01.004Z,61.48
2023-03-11T17:39:28.515Z,62.05
2023-03-11T17:41:55.935Z,62.06
2023-03-11T17:44:23.370Z,63.31
2023-03-11T17:46:50.817Z,64.16
2023-03-11T17:49:19.581Z,64.74
2023-03-11T17:51:47.037Z,65.39
2023-03-11T17:54:14.473Z,66.40
2023-03-11T17:56:42.070Z,67.19
2023-03-11T17:59:09.583Z,67.65
2023-03-11T18:01:37.115Z,68.17
2023-03-11T18:04:05.094Z,69.08
2023-03-11T18:06:34.198Z,68.87
2023-03-11T18:09:01.629Z,68.99
2023-03-11T18:11:29.422Z,70.09
2023-03-11T18:13:56.963Z,71.33
2023-03-11T18:16:27.754Z,71.36
2023-03-11T18:18:55.845Z,71.88
2023-03-11T18:21:25.355Z,72.45
2023-03-11T18:23:55.749Z,72.97
2023-03-11T18:26:24.288Z,73.14
2023-03-11T18:28:53.459Z,73.46
2023-03-11T18:31:25.030Z,74.27
2023-03-11T18:33:54.640Z,74.99
2023-03-11T18:36:24.165Z,75.32
2023-03-11T18:38:55.171Z,75.76
2023-03-11T18:41:22.623Z,76.08
2023-03-11T18:43:52.991Z,76.31
2023-03-11T18:46:20.497Z,76.39
2023-03-11T18:48:47.960Z,77.05
2023-03-11T18:51:16.022Z,77.99
2023-03-11T18:53:43.504Z,77.61
2023-03-11T18:56:15.358Z,78.28
2023-03-11T18:58:42.871Z,78.64
2023-03-11T19:01:13.861Z,79.90
2023-03-11T19:03:41.690Z,79.44
2023-03-11T19:06:09.668Z,79.64
2023-03-11T19:08:37.127Z,80.63
2023-03-11T19:11:07.395Z,81.27
2023-03-11T19:13:46.627Z,81.88
2023-03-11T19:16:15.995Z,82.65
2023-03-11T19:18:43.566Z,82.70
2023-03-11T19:21:13.000Z,83.09
2023-03-11T19:23:40.470Z,83.10
2023-03-11T19:26:08.665Z,83.60
2023-03-11T19:28:37.492Z,82.99
2023-03-11T19:31:06.097Z,83.54
2023-03-11T19:33:35.395Z,84.15
2023-03-11T19:36:04.613Z,85.36
2023-03-11T19:38:32.596Z,85.25
2023-03-11T19:41:05.281Z,85.68
2023-03-11T19:43:33.366Z,85.79
2023-03-11T19:46:02.231Z,85.83
2023-03-11T19:48:29.680Z,86.24
2023-03-11T19:50:58.341Z,85.58
2023-03-11T19:53:27.014Z,86.02
2023-03-11T19:55:56.966Z,86.51
2023-03-11T19:58:29.455Z,87.14
2023-03-11T20:00:58.494Z,87.81
2023-03-11T20:03:27.665Z,88.31
2023-03-11T20:05:57.857Z,88.92
2023-03-11T20:08:26.683Z,88.54
2023-03-11T20:10:54.751Z,88.77
2023-03-11T20:13:23.499Z,89.49
2023-03-11T20:15:51.391Z,90.50
2023-03-11T20:18:18.861Z,91.21
2023-03-11T20:20:47.669Z,91.89
2023-03-11T20:23:15.257Z,92.02
2023-03-11T20:25:43.260Z,92.07
2023-03-11T20:28:11.244Z,92.50
2023-03-11T20:30:40.092Z,92.05
2023-03-11T20:33:08.474Z,91.76
2023-03-11T20:35:36.184Z,91.83
2023-03-11T20:38:05.171Z,91.75
2023-03-11T20:40:32.685Z,91.26
2023-03-11T20:43:00.208Z,91.12
2023-03-11T20:45:27.761Z,90.71
2023-03-11T20:47:55.747Z,90.37
2023-03-11T20:50:23.770Z,90.18
2023-03-11T20:52:52.020Z,89.71
2023-03-11T20:55:22.628Z,88.86
2023-03-11T20:57:50.112Z,89.01
2023-03-11T21:00:18.200Z,88.99
2023-03-11T21:02:45.881Z,89.15
2023-03-11T21:05:14.078Z,88.97
2023-03-11T21:07:41.767Z,89.39
2023-03-11T21:10:12.684Z,89.51
2023-03-11T21:12:41.532Z,89.19
2023-03-11T21:15:10.467Z,89.43
2023-03-11T21:17:38.627Z,89.74
2023-03-11T21:20:08.856Z,89.96
2023-03-11T21:22:36.650Z,90.70
2023-03-11T21:25:06.524Z,91.26
2023-03-11T21:27:36.172Z,91.63
2023-03-11T21:30:05.762Z,91.90
2023-03-11T21:32:33.514Z,92.79
2023-03-11T21:35:05.018Z,93.31
2023-03-11T21:37:32.938Z,93.70
2023-03-11T21:40:00.767Z,93.82
2023-03-11T21:42:30.175Z,93.59
2023-03-11T21:44:58.075Z,93.38
2023-03-11T21:47:27.322Z,93.54
2023-03-11T21:49:55.069Z,93.09
2023-03-11T21:52:22.762Z,93.29
2023-03-11T21:54:50.763Z,93.27
2023-03-11T21:57:18.385Z,93.22
2023-03-11T21:59:47.237Z,93.14
2023-03-11T22:02:16.860Z,93.10
2023-03-11T22:04:45.879Z,92.90
2023-03-11T22:07:13.532Z,93.04
2023-03-11T22:09:41.311Z,92.87
2023-03-11T22:12:09.218Z,92.84
2023-03-11T22:14:36.938Z,92.72
2023-03-11T22:17:07.299Z,93.41
2023-03-11T22:19:35.100Z,93.51
2023-03-11T22:22:06.317Z,93.87
2023-03-11T22:24:33.962Z,93.97
2023-03-11T22:27:01.618Z,94.20
2023-03-11T22:29:29.294Z,94.38
2023-03-11T22:31:57.243Z,94.43
2023-03-11T22:34:25.019Z,94.26
2023-03-11T22:36:52.804Z,94.12
2023-03-11T22:39:21.723Z,94.20
2023-03-11T22:41:49.343Z,93.57
2023-03-11T22:44:16.996Z,93.49
2023-03-11T22:46:47.522Z,92.55
2023-03-11T22:49:15.098Z,91.29
2023-03-11T22:51:42.770Z,90.30
2023-03-11T22:54:10.478Z,89.86
2023-03-11T22:56:39.571Z,89.62
2023-03-11T22:59:07.116Z,89.25
2023-03-11T23:01:34.812Z,89.81
2023-03-11T23:04:02.617Z,90.99
2023-03-11T23:06:30.205Z,91.10
2023-03-11T23:08:57.781Z,91.07
2023-03-11T23:11:25.475Z,91.25
2023-03-11T23:13:54.487Z,91.35
2023-03-11T23:16:25.996Z,91.85
2023-03-11T23:18:56.089Z,91.92
2023-03-11T23:21:26.023Z,91.36
2023-03-11T23:23:54.615Z,91.41
2023-03-11T23:26:23.268Z,91.21
2023-03-11T23:28:52.059Z,90.82
2023-03-11T23:31:23.303Z,90.62
2023-03-11T23:33:54.149Z,90.05
2023-03-11T23:36:23.856Z,89.29
2023-03-11T23:38:51.763Z,88.66
2023-03-11T23:41:23.533Z,88.60
2023-03-11T23:43:51.723Z,89.04
2023-03-11T23:46:20.770Z,89.60
2023-03-11T23:48:48.515Z,90.26
2023-03-11T23:51:16.162Z,90.86
2023-03-11T23:53:43.764Z,91.14
2023-03-11T23:56:13.450Z,90.83
2023-03-11T23:58:41.551Z,89.96
